Time;durP1;ratioP1;P1;durP2;ratioP2;P2;SDS_P1;SDS_P2;PMS_P1;PMS_P2;Temp;Humidity;BMP_temperature;BMP_pressure;BME280_temperature;BME280_humidity;BME280_pressure;Samples;Min_cycle;Max_cycle;Signal;HPM_P1;HPM_P2
2022/11/25 00:01:23;;;;;;;12.68;1.10;;;8.50;99.90;;;;;;5033507;28;20488;-75
2022/11/25 00:03:49;;;;;;;13.50;1.33;;;8.50;99.90;;;;;;5034240;28;20013;-74
2022/11/25 00:06:22;;;;;;;13.93;1.70;;;8.50;99.90;;;;;;5035149;28;20032;-73
2022/11/25 00:08:51;;;;;;;17.52;1.50;;;8.40;99.90;;;;;;5035902;28;20037;-74
2022/11/25 00:11:17;;;;;;;14.90;2.08;;;8.40;99.90;;;;;;5034974;28;20060;-74
2022/11/25 00:13:44;;;;;;;23.17;2.38;;;8.40;99.90;;;;;;5032491;28;20022;-73
2022/11/25 00:16:13;;;;;;;18.88;1.92;;;8.40;99.90;;;;;;5038536;28;20041;-74
2022/11/25 00:18:39;;;;;;;14.57;1.20;;;8.50;99.90;;;;;;5007123;28;20029;-74
2022/11/25 00:21:09;;;;;;;12.63;1.27;;;8.50;99.90;;;;;;5035301;28;20051;-74
2022/11/25 00:23:36;;;;;;;14.48;1.15;;;8.50;99.90;;;;;;5035000;28;20104;-74
2022/11/25 00:26:12;;;;;;;13.98;1.52;;;8.50;99.90;;;;;;5035795;28;20033;-74
2022/11/25 00:28:39;;;;;;;11.68;1.63;;;8.50;99.90;;;;;;5035526;28;20047;-74
2022/11/25 00:31:07;;;;;;;11.48;1.33;;;8.50;99.90;;;;;;5037972;28;20021;-75
2022/11/25 00:33:32;;;;;;;12.88;1.40;;;8.50;99.90;;;;;;5034701;28;20102;-74
2022/11/25 00:36:03;;;;;;;15.88;1.38;;;8.50;99.90;;;;;;5044585;28;20059;-74
2022/11/25 00:38:29;;;;;;;18.10;1.65;;;8.50;99.90;;;;;;5021923;28;20040;-74
2022/11/25 00:44:34;;;;;;;18.48;2.17;;;8.40;99.90;;;;;;5017851;28;20025;-73
2022/11/25 00:46:25;;;;;;;17.52;1.98;;;8.40;99.90;;;;;;5033830;28;20041;-73
2022/11/25 00:48:50;;;;;;;16.20;1.70;;;8.40;99.90;;;;;;5039813;28;20029;-74
2022/11/25 00:51:16;;;;;;;23.38;2.30;;;8.40;99.90;;;;;;5034811;28;20057;-74
2022/11/25 00:53:41;;;;;;;14.20;1.73;;;8.40;99.90;;;;;;5031675;28;20041;-73
2022/11/25 00:56:13;;;;;;;20.08;2.63;;;8.30;99.90;;;;;;5038064;28;20024;-74
2022/11/25 00:58:42;;;;;;;17.67;1.95;;;8.30;99.90;;;;;;5052787;28;20040;-74
2022/11/25 01:01:09;;;;;;;20.17;1.70;;;8.30;99.90;;;;;;5033143;28;20025;-73
2022/11/25 01:03:36;;;;;;;16.35;1.45;;;8.30;99.90;;;;;;5032022;28;20072;-73
2022/11/25 01:06:09;;;;;;;17.60;2.53;;;8.30;99.90;;;;;;5035599;28;20025;-74
2022/11/25 01:08:36;;;;;;;17.65;2.55;;;8.30;99.90;;;;;;5035892;28;20082;-73
2022/11/25 01:11:05;;;;;;;15.65;2.13;;;8.30;99.90;;;;;;5035746;28;20045;-74
2022/11/25 01:13:31;;;;;;;16.58;1.88;;;8.30;99.90;;;;;;5034389;28;20024;-73
2022/11/25 01:16:01;;;;;;;12.82;1.90;;;8.30;99.90;;;;;;5005064;28;20026;-74
2022/11/25 01:18:28;;;;;;;17.33;1.80;;;8.30;99.90;;;;;;5035742;28;20111;-73
2022/11/25 01:20:54;;;;;;;16.83;2.50;;;8.20;99.90;;;;;;5016610;28;20028;-74
2022/11/25 01:23:19;;;;;;;14.30;1.50;;;8.30;99.90;;;;;;5035369;28;20026;-74
2022/11/25 01:25:45;;;;;;;14.60;1.58;;;8.30;99.90;;;;;;5019311;28;20108;-74
2022/11/25 01:28:12;;;;;;;16.10;2.58;;;8.20;99.90;;;;;;5033525;28;20111;-74
2022/11/25 01:30:38;;;;;;;14.02;1.38;;;8.20;99.90;;;;;;5012887;28;20022;-73
2022/11/25 01:33:04;;;;;;;15.85;3.05;;;8.30;99.90;;;;;;5029156;28;20041;-75
2022/11/25 01:35:30;;;;;;;14.32;1.50;;;8.30;99.90;;;;;;5033582;28;20029;-74
2022/11/25 01:37:56;;;;;;;10.23;1.23;;;8.30;99.90;;;;;;5044057;28;20056;-74
2022/11/25 01:40:22;;;;;;;15.10;1.75;;;8.30;99.90;;;;;;5034088;28;20037;-74
2022/11/25 01:42:48;;;;;;;15.40;2.42;;;8.30;99.90;;;;;;5033952;28;20025;-75
2022/11/25 01:45:22;;;;;;;15.25;1.80;;;8.30;99.90;;;;;;5032644;28;20033;-73
2022/11/25 01:47:55;;;;;;;16.08;1.80;;;8.30;99.90;;;;;;5032252;28;20030;-74
2022/11/25 01:50:22;;;;;;;;;;;8.30;99.90;;;;;;5033029;28;20040;-75
2022/11/25 01:52:50;;;;;;;13.40;1.35;;;8.30;99.90;;;;;;5028841;28;19909;-73
2022/11/25 01:55:23;;;;;;;14.65;1.63;;;8.30;99.90;;;;;;5013298;28;20025;-73
2022/11/25 01:57:50;;;;;;;;;;;8.30;99.90;;;;;;5035180;28;20025;-74
2022/11/25 02:00:16;;;;;;;14.32;1.58;;;8.40;99.90;;;;;;5038484;28;19911;-74
2022/11/25 02:02:42;;;;;;;10.10;1.58;;;8.30;99.90;;;;;;5030852;28;20057;-75
2022/11/25 02:05:12;;;;;;;16.13;1.83;;;8.30;99.90;;;;;;5030336;28;20021;-73
2022/11/25 02:07:44;;;;;;;16.10;1.40;;;8.40;99.90;;;;;;5013138;28;20037;-74
2022/11/25 02:10:13;;;;;;;15.52;1.73;;;8.40;99.90;;;;;;5032355;28;20044;-74
2022/11/25 02:12:43;;;;;;;10.10;1.67;;;8.40;99.90;;;;;;5037824;28;20033;-73
2022/11/25 02:15:09;;;;;;;16.27;1.15;;;8.50;99.90;;;;;;5049797;28;20078;-74
2022/11/25 02:17:35;;;;;;;16.45;1.45;;;8.50;99.90;;;;;;5033028;28;20018;-75
2022/11/25 02:20:21;;;;;;;15.38;1.77;;;8.50;99.90;;;;;;5012090;28;20034;-73
2022/11/25 02:23:06;;;;;;;11.25;1.25;;;8.50;99.90;;;;;;5034708;28;20030;-74
2022/11/25 02:25:37;;;;;;;15.77;1.80;;;8.60;99.90;;;;;;5034244;28;20521;-74
2022/11/25 02:28:17;;;;;;;10.60;1.10;;;8.60;99.90;;;;;;5030134;28;20063;-75
2022/11/25 02:30:43;;;;;;;17.30;1.52;;;8.60;99.90;;;;;;5012349;28;20088;-73
2022/11/25 02:33:10;;;;;;;12.95;1.13;;;8.70;99.90;;;;;;5041281;28;20641;-74
2022/11/25 02:35:45;;;;;;;11.25;1.02;;;8.70;99.90;;;;;;5018753;28;20072;-73
2022/11/25 02:38:33;;;;;;;14.90;1.58;;;8.80;99.90;;;;;;5036392;28;20040;-74
2022/11/25 02:41:03;;;;;;;11.70;1.20;;;8.80;99.90;;;;;;5043218;28;20116;-74
2022/11/25 02:43:29;;;;;;;18.95;2.10;;;8.90;99.90;;;;;;5031048;28;20506;-74
2022/11/25 02:46:01;;;;;;;15.20;1.40;;;8.90;99.90;;;;;;5017448;28;20041;-74
2022/11/25 02:48:29;;;;;;;12.35;1.30;;;9.00;99.90;;;;;;5031406;28;20030;-73
2022/11/25 02:50:55;;;;;;;10.30;1.60;;;9.00;99.90;;;;;;5033693;28;20846;-74
2022/11/25 02:53:22;;;;;;;15.73;1.30;;;9.00;99.90;;;;;;5033430;28;20038;-76
2022/11/25 02:55:48;;;;;;;12.98;1.17;;;9.00;99.90;;;;;;5032585;28;20087;-74
2022/11/25 02:58:14;;;;;;;10.98;1.42;;;9.00;99.90;;;;;;5032909;28;20109;-74
2022/11/25 03:00:41;;;;;;;11.68;1.45;;;9.00;99.90;;;;;;5032947;28;20067;-74
2022/11/25 03:03:07;;;;;;;9.80;1.40;;;9.10;99.90;;;;;;5033138;28;20025;-73
2022/11/25 03:05:32;;;;;;;9.45;1.20;;;9.10;99.90;;;;;;5032715;28;20032;-75
2022/11/25 03:07:58;;;;;;;12.60;1.30;;;9.10;99.90;;;;;;5033320;28;20033;-74
2022/11/25 03:10:24;;;;;;;12.07;1.20;;;9.20;99.90;;;;;;5033607;28;20040;-74
2022/11/25 03:12:50;;;;;;;9.00;1.13;;;9.20;99.90;;;;;;5025161;28;20044;-72
2022/11/25 03:15:15;;;;;;;10.30;0.88;;;9.30;99.90;;;;;;5040682;28;20477;-74
2022/11/25 03:17:41;;;;;;;12.48;1.15;;;9.30;99.90;;;;;;5035795;28;20032;-73
2022/11/25 03:20:08;;;;;;;10.18;0.82;;;9.40;99.90;;;;;;5034515;28;20532;-74
2022/11/25 03:22:34;;;;;;;10.77;0.70;;;9.40;99.90;;;;;;5033247;28;20048;-74
2022/11/25 03:25:00;;;;;;;6.65;0.65;;;9.40;99.90;;;;;;5032661;28;20033;-73
2022/11/25 03:27:26;;;;;;;12.60;1.15;;;9.50;99.90;;;;;;5031314;28;20041;-74
2022/11/25 03:29:52;;;;;;;12.75;1.00;;;9.50;99.90;;;;;;5015148;28;20048;-74
2022/11/25 03:32:18;;;;;;;12.75;1.10;;;9.50;99.90;;;;;;5030534;28;20129;-74
2022/11/25 03:34:43;;;;;;;11.07;0.85;;;9.50;99.90;;;;;;5040140;28;20036;-74
2022/11/25 03:37:09;;;;;;;9.57;0.88;;;9.50;99.90;;;;;;5035083;28;20025;-74
2022/11/25 03:39:35;;;;;;;9.60;1.40;;;9.40;99.90;;;;;;5032737;28;20060;-74
2022/11/25 03:42:01;;;;;;;7.57;0.75;;;9.40;99.90;;;;;;5032065;28;20491;-74
2022/11/25 03:44:26;;;;;;;7.40;0.70;;;9.40;99.90;;;;;;5016370;28;20037;-74
2022/11/25 03:46:52;;;;;;;8.70;0.70;;;9.40;99.90;;;;;;5028270;28;20021;-74
2022/11/25 03:49:18;;;;;;;11.30;1.35;;;9.30;99.90;;;;;;5028737;28;20068;-73
2022/11/25 03:51:43;;;;;;;9.80;0.70;;;9.30;99.90;;;;;;5034569;28;20033;-74
2022/11/25 03:54:09;;;;;;;11.98;1.05;;;9.30;99.90;;;;;;5044261;28;20047;-72
2022/11/25 03:56:35;;;;;;;8.77;0.60;;;9.20;99.90;;;;;;5036086;28;20018;-73
2022/11/25 03:59:00;;;;;;;10.52;0.80;;;9.30;99.90;;;;;;5032738;28;20391;-73
2022/11/25 04:01:26;;;;;;;7.32;0.75;;;9.20;99.90;;;;;;5032155;28;20033;-74
2022/11/25 04:03:51;;;;;;;8.25;0.80;;;9.20;99.90;;;;;;5038450;28;20056;-73
2022/11/25 04:06:20;;;;;;;9.00;0.98;;;9.20;99.90;;;;;;5031105;28;20026;-74
2022/11/25 04:08:46;;;;;;;6.55;0.50;;;9.10;99.90;;;;;;5043762;28;20041;-73
2022/11/25 04:11:12;;;;;;;7.15;0.70;;;9.10;99.90;;;;;;5029124;28;20036;-73
2022/11/25 04:13:37;;;;;;;9.13;0.85;;;9.10;99.90;;;;;;5030277;28;20526;-73
2022/11/25 04:16:03;;;;;;;15.45;1.40;;;9.10;99.90;;;;;;5030570;28;20034;-73
2022/11/25 04:18:28;;;;;;;9.90;0.90;;;9.10;99.90;;;;;;5030841;28;20397;-74
2022/11/25 04:20:54;;;;;;;10.98;0.70;;;9.10;99.90;;;;;;5029625;28;20017;-73
2022/11/25 04:23:19;;;;;;;10.38;1.10;;;9.10;99.90;;;;;;5027737;28;20029;-73
2022/11/25 04:25:48;;;;;;;11.43;0.88;;;9.10;99.90;;;;;;5036748;28;20031;-73
2022/11/25 04:28:14;;;;;;;9.98;0.90;;;9.10;99.90;;;;;;5041798;28;20030;-74
2022/11/25 04:30:39;;;;;;;7.68;1.10;;;9.10;99.90;;;;;;5023953;28;20045;-74
2022/11/25 04:33:05;;;;;;;9.57;1.08;;;9.00;99.90;;;;;;5034722;28;20045;-73
2022/11/25 04:35:31;;;;;;;6.00;0.90;;;9.00;99.90;;;;;;5032041;28;20072;-74
2022/11/25 04:37:56;;;;;;;15.10;1.00;;;9.00;99.90;;;;;;5032943;28;20570;-73
2022/11/25 04:40:22;;;;;;;9.82;0.93;;;9.00;99.90;;;;;;5028677;28;20034;-73
2022/11/25 04:42:48;;;;;;;7.43;0.80;;;9.00;99.90;;;;;;5032096;28;20031;-73
2022/11/25 04:45:17;;;;;;;11.25;0.80;;;9.10;99.90;;;;;;5031481;28;20018;-73
2022/11/25 04:47:44;;;;;;;10.85;1.17;;;9.10;99.90;;;;;;5045912;28;20563;-73
2022/11/25 04:50:15;;;;;;;15.75;0.93;;;9.10;99.90;;;;;;5033502;28;20120;-74
2022/11/25 04:52:40;;;;;;;10.85;1.20;;;9.10;99.90;;;;;;5040304;28;20036;-72
2022/11/25 04:55:06;;;;;;;11.57;1.17;;;9.10;99.90;;;;;;5034105;28;20037;-73
2022/11/25 04:57:32;;;;;;;12.65;1.05;;;9.10;99.90;;;;;;5031519;28;20025;-74
2022/11/25 04:59:57;;;;;;;12.45;1.00;;;9.10;99.90;;;;;;5030335;28;20091;-75
2022/11/25 05:02:26;;;;;;;9.40;0.70;;;9.10;99.90;;;;;;5012085;28;20033;-74
2022/11/25 05:04:54;;;;;;;10.20;1.25;;;9.10;99.90;;;;;;5032418;28;20037;-74
2022/11/25 05:07:21;;;;;;;6.45;0.63;;;9.10;99.90;;;;;;5008706;28;20061;-72
2022/11/25 05:09:47;;;;;;;7.05;0.82;;;9.10;99.90;;;;;;5031358;28;20049;-73
2022/11/25 05:12:19;;;;;;;6.35;0.80;;;9.10;99.90;;;;;;5026351;28;20017;-78
2022/11/25 05:14:45;;;;;;;9.10;1.33;;;9.10;99.90;;;;;;5032389;28;20045;-74
2022/11/25 05:17:20;;;;;;;10.40;0.70;;;9.10;99.90;;;;;;5030523;28;20541;-74
2022/11/25 05:19:46;;;;;;;4.43;0.65;;;9.10;99.90;;;;;;5030752;28;20095;-74
2022/11/25 05:22:17;;;;;;;10.32;0.70;;;9.10;99.90;;;;;;5030720;28;20033;-73
2022/11/25 05:24:43;;;;;;;8.32;0.65;;;9.10;99.90;;;;;;5031032;28;20029;-74
2022/11/25 05:27:09;;;;;;;5.22;0.80;;;9.10;99.90;;;;;;5028270;28;20113;-74
2022/11/25 05:29:35;;;;;;;6.78;0.98;;;9.10;99.90;;;;;;5029848;28;20041;-74
2022/11/25 05:32:01;;;;;;;6.50;0.65;;;9.00;99.90;;;;;;5032137;28;20108;-74
2022/11/25 05:34:26;;;;;;;6.90;0.52;;;9.00;99.90;;;;;;5029426;28;20018;-74
2022/11/25 05:36:52;;;;;;;6.28;0.50;;;9.00;99.90;;;;;;5030282;28;20052;-74
2022/11/25 05:39:17;;;;;;;8.15;0.63;;;8.90;99.90;;;;;;5030051;28;20033;-74
2022/11/25 05:41:43;;;;;;;2.55;0.40;;;8.80;99.90;;;;;;5011715;28;20049;-74
2022/11/25 05:44:08;;;;;;;10.95;0.90;;;8.70;99.90;;;;;;5017474;28;20032;-74
2022/11/25 05:46:34;;;;;;;5.78;0.80;;;8.60;99.90;;;;;;5029723;28;20408;-74
2022/11/25 05:49:00;;;;;;;7.43;0.82;;;8.60;99.90;;;;;;5028622;28;20112;-74
2022/11/25 05:51:27;;;;;;;5.72;1.15;;;8.50;99.90;;;;;;5029965;28;20447;-74
2022/11/25 05:53:53;;;;;;;6.22;0.60;;;8.40;99.90;;;;;;5029740;28;20112;-73
2022/11/25 05:56:18;;;;;;;5.47;0.70;;;8.40;99.90;;;;;;5032238;28;20495;-74
2022/11/25 05:58:44;;;;;;;5.18;0.40;;;8.30;99.90;;;;;;5030019;28;20022;-74
2022/11/25 06:01:12;;;;;;;4.78;0.40;;;8.30;99.90;;;;;;5028796;28;20098;-73
2022/11/25 06:03:38;;;;;;;6.97;0.60;;;8.20;99.90;;;;;;5012942;28;20026;-74
2022/11/25 06:06:05;;;;;;;3.78;0.57;;;8.20;99.90;;;;;;5028343;28;20040;-74
2022/11/25 06:08:31;;;;;;;7.13;0.77;;;8.20;99.90;;;;;;5028284;28;20034;-74
2022/11/25 06:10:56;;;;;;;5.90;0.50;;;8.20;99.90;;;;;;5036874;28;20361;-74
2022/11/25 06:13:22;;;;;;;8.23;0.70;;;8.20;99.90;;;;;;5030571;28;20025;-74
2022/11/25 06:15:48;;;;;;;4.32;0.50;;;8.10;99.90;;;;;;5028585;28;20025;-73
2022/11/25 06:18:15;;;;;;;6.20;0.60;;;8.10;99.90;;;;;;5017335;28;20151;-74
2022/11/25 06:20:41;;;;;;;4.50;0.52;;;8.00;99.90;;;;;;5019565;28;20030;-74
2022/11/25 06:23:08;;;;;;;5.85;0.60;;;8.00;99.90;;;;;;5026518;28;20041;-73
2022/11/25 06:25:35;;;;;;;6.03;1.13;;;8.00;99.90;;;;;;5024195;28;20026;-73
2022/11/25 06:28:02;;;;;;;5.80;0.80;;;8.00;99.90;;;;;;5030692;28;20028;-73
2022/11/25 06:30:28;;;;;;;10.52;0.90;;;7.90;99.90;;;;;;5032252;28;20061;-73
2022/11/25 06:32:53;;;;;;;7.35;0.70;;;7.90;99.90;;;;;;5033952;28;20119;-74
2022/11/25 06:35:19;;;;;;;6.85;0.88;;;7.90;99.90;;;;;;5033451;28;20037;-74
2022/11/25 06:37:45;;;;;;;7.13;0.60;;;7.80;99.90;;;;;;5032910;28;20017;-73
2022/11/25 06:40:11;;;;;;;4.82;0.82;;;7.80;99.90;;;;;;5032217;28;20036;-73
2022/11/25 06:42:37;;;;;;;5.18;0.88;;;7.80;99.90;;;;;;5016485;28;20029;-73
2022/11/25 06:45:03;;;;;;;8.43;1.15;;;7.80;99.90;;;;;;5015389;28;20021;-73
2022/11/25 06:47:29;;;;;;;6.22;0.75;;;7.70;99.90;;;;;;5033062;28;20376;-74
2022/11/25 06:49:54;;;;;;;9.20;0.90;;;7.70;99.90;;;;;;5034279;28;20087;-73
2022/11/25 06:52:20;;;;;;;8.27;1.10;;;7.70;99.90;;;;;;5033581;28;20383;-74
2022/11/25 06:54:45;;;;;;;7.72;1.00;;;7.70;99.90;;;;;;5032163;28;20037;-73
2022/11/25 06:57:15;;;;;;;9.68;1.13;;;7.60;99.90;;;;;;5033224;28;20021;-74
2022/11/25 06:59:40;;;;;;;9.48;1.38;;;7.70;99.90;;;;;;5028986;28;20029;-74
2022/11/25 07:02:08;;;;;;;4.88;1.00;;;7.70;99.90;;;;;;5033626;28;20056;-74
2022/11/25 07:04:34;;;;;;;9.93;1.45;;;7.70;99.90;;;;;;5031510;28;20487;-74
2022/11/25 07:07:00;;;;;;;8.80;1.40;;;7.70;99.90;;;;;;5033333;28;20403;-74
2022/11/25 07:09:25;;;;;;;8.80;1.23;;;7.70;99.90;;;;;;5036341;28;20064;-73
2022/11/25 07:11:51;;;;;;;7.57;1.48;;;7.60;99.90;;;;;;5022495;28;20026;-74
2022/11/25 07:14:16;;;;;;;8.73;1.13;;;7.60;99.90;;;;;;5028878;28;20033;-73
2022/11/25 07:16:43;;;;;;;10.95;1.23;;;7.60;99.90;;;;;;5026167;28;20025;-73
2022/11/25 07:19:11;;;;;;;9.10;1.10;;;7.60;99.90;;;;;;5024145;28;20113;-73
2022/11/25 07:21:37;;;;;;;9.43;1.58;;;7.60;99.90;;;;;;5022676;28;20057;-73
2022/11/25 07:24:05;;;;;;;7.85;1.25;;;7.60;99.90;;;;;;5020591;28;20037;-73
2022/11/25 07:26:34;;;;;;;7.97;1.45;;;7.50;99.90;;;;;;5020936;28;20515;-73
2022/11/25 07:29:02;;;;;;;10.48;1.75;;;7.50;99.90;;;;;;5025060;28;20387;-74
2022/11/25 07:31:33;;;;;;;7.80;1.67;;;7.40;99.90;;;;;;5023922;28;20030;-74
2022/11/25 07:34:01;;;;;;;8.30;1.45;;;7.40;99.90;;;;;;5025896;28;20491;-73
2022/11/25 07:36:28;;;;;;;12.35;1.60;;;7.40;99.90;;;;;;5022152;28;20034;-73
2022/11/25 07:38:54;;;;;;;7.50;1.60;;;7.40;99.90;;;;;;5026634;28;20032;-73
2022/11/25 07:41:22;;;;;;;6.97;1.40;;;7.40;99.90;;;;;;5030092;28;20029;-73
2022/11/25 07:43:50;;;;;;;9.73;1.55;;;7.30;99.90;;;;;;5026867;28;20034;-73
2022/11/25 07:46:25;;;;;;;9.88;2.90;;;7.30;99.90;;;;;;5031590;28;20476;-73
2022/11/25 07:48:52;;;;;;;10.23;1.65;;;7.30;99.90;;;;;;5030044;28;20120;-73
2022/11/25 07:51:20;;;;;;;12.52;1.95;;;7.30;99.90;;;;;;5026901;28;20509;-73
2022/11/25 07:53:47;;;;;;;10.73;2.28;;;7.30;99.90;;;;;;5028925;28;20052;-73
2022/11/25 07:56:14;;;;;;;10.02;1.65;;;7.30;99.90;;;;;;5027792;28;20022;-74
2022/11/25 07:58:41;;;;;;;10.43;2.45;;;7.30;99.90;;;;;;5024159;28;20040;-74
2022/11/25 08:01:09;;;;;;;8.52;1.65;;;7.40;99.90;;;;;;5022842;28;20471;-72
2022/11/25 08:03:36;;;;;;;6.55;1.90;;;7.40;99.90;;;;;;5008237;28;20518;-74
2022/11/25 08:06:08;;;;;;;12.20;2.03;;;7.40;99.90;;;;;;5031261;28;20032;-74
2022/11/25 08:08:35;;;;;;;8.75;1.80;;;7.40;99.90;;;;;;5029538;28;20117;-74
2022/11/25 08:11:15;;;;;;;9.98;1.88;;;7.50;99.90;;;;;;5024065;28;20036;-73
2022/11/25 08:13:42;;;;;;;9.88;1.67;;;7.50;99.90;;;;;;5005780;28;20055;-73
2022/11/25 08:16:10;;;;;;;12.20;2.05;;;7.50;99.90;;;;;;5001069;28;20033;-73
2022/11/25 08:18:36;;;;;;;8.85;1.65;;;7.50;99.90;;;;;;5017702;28;20025;-73
2022/11/25 08:21:03;;;;;;;6.93;1.85;;;7.60;99.90;;;;;;5022036;28;20029;-73
2022/11/25 08:23:31;;;;;;;10.27;1.50;;;7.60;99.90;;;;;;5030914;28;20113;-72
2022/11/25 08:25:57;;;;;;;10.05;1.75;;;7.70;99.90;;;;;;5027611;28;20033;-72
2022/11/25 08:28:23;;;;;;;9.82;1.98;;;7.70;99.90;;;;;;5027274;28;20027;-73
2022/11/25 08:30:49;;;;;;;15.57;1.67;;;7.70;99.90;;;;;;5028007;28;20049;-74
2022/11/25 08:33:15;;;;;;;4.75;1.48;;;7.80;99.90;;;;;;5011515;28;20057;-74
2022/11/25 08:35:40;;;;;;;4.40;1.23;;;7.90;99.90;;;;;;5027523;28;20025;-74
2022/11/25 08:38:14;;;;;;;11.45;2.10;;;7.90;99.90;;;;;;5018928;28;20034;-74
2022/11/25 08:40:43;;;;;;;9.18;1.90;;;8.00;99.90;;;;;;5025420;28;20129;-72
2022/11/25 08:43:09;;;;;;;9.88;1.58;;;8.10;99.90;;;;;;5019554;28;20049;-72
2022/11/25 08:45:34;;;;;;;12.73;1.52;;;8.10;99.90;;;;;;5024219;28;20065;-72
2022/11/25 08:48:00;;;;;;;11.77;1.95;;;8.20;99.90;;;;;;5022281;28;20048;-73
2022/11/25 08:50:25;;;;;;;7.43;1.83;;;8.20;99.90;;;;;;5020688;28;20135;-73
2022/11/25 08:52:51;;;;;;;6.82;1.55;;;8.30;99.90;;;;;;5025190;28;20031;-73
2022/11/25 08:55:16;;;;;;;8.88;1.73;;;8.30;99.90;;;;;;5027869;28;20065;-73
2022/11/25 08:57:42;;;;;;;9.75;1.60;;;8.40;99.90;;;;;;5010059;28;20034;-74
2022/11/25 09:00:08;;;;;;;8.73;1.48;;;8.40;99.90;;;;;;5028557;28;20038;-75
2022/11/25 09:02:34;;;;;;;5.72;1.15;;;8.50;99.90;;;;;;5015324;28;20053;-74
2022/11/25 09:04:59;;;;;;;8.30;1.50;;;8.60;99.90;;;;;;5026513;28;20025;-74
2022/11/25 09:07:25;;;;;;;11.32;1.60;;;8.60;99.90;;;;;;5026899;28;20372;-74
2022/11/25 09:09:51;;;;;;;7.50;1.20;;;8.70;99.90;;;;;;5029710;28;20099;-74
2022/11/25 09:12:16;;;;;;;5.07;1.15;;;8.70;99.90;;;;;;5027901;28;20057;-73
2022/11/25 09:14:42;;;;;;;9.35;1.48;;;8.80;99.90;;;;;;5025540;28;20116;-73
2022/11/25 09:17:09;;;;;;;8.68;1.45;;;8.80;99.90;;;;;;5026318;28;20040;-72
2022/11/25 09:19:35;;;;;;;7.00;1.00;;;8.90;99.90;;;;;;5031888;28;20096;-72
2022/11/25 09:22:01;;;;;;;7.15;1.10;;;9.00;99.90;;;;;;5026157;28;20499;-73
2022/11/25 09:24:26;;;;;;;8.48;1.63;;;9.00;99.90;;;;;;5006553;28;20088;-74
2022/11/25 09:26:53;;;;;;;11.02;1.73;;;9.10;99.90;;;;;;5020124;28;20025;-73
2022/11/25 09:29:19;;;;;;;8.73;1.60;;;9.10;99.90;;;;;;5027408;28;20040;-72
2022/11/25 09:31:44;;;;;;;9.30;1.70;;;9.10;99.90;;;;;;5026559;28;20030;-73
2022/11/25 09:34:10;;;;;;;6.60;2.00;;;9.20;99.90;;;;;;5027634;28;20077;-73
2022/11/25 09:36:35;;;;;;;9.77;1.98;;;9.20;99.90;;;;;;5023229;28;20117;-73
2022/11/25 09:39:01;;;;;;;6.18;1.60;;;9.30;99.90;;;;;;5021766;28;20502;-74
2022/11/25 09:47:43;;;;;;;5.80;2.10;;;9.40;99.90;;;;;;5022342;28;20040;-73
2022/11/25 09:50:34;;;;;;;10.25;2.70;;;9.40;99.90;;;;;;5010337;28;20121;-74
2022/11/25 09:53:24;;;;;;;8.57;2.15;;;9.50;99.90;;;;;;5025715;28;20364;-74
2022/11/25 09:55:52;;;;;;;11.43;3.10;;;9.50;99.90;;;;;;5027577;28;20104;-74
2022/11/25 09:58:38;;;;;;;11.98;2.60;;;9.50;99.90;;;;;;5024761;28;20370;-74
2022/11/25 10:01:11;;;;;;;11.10;2.50;;;9.60;99.90;;;;;;5006575;28;20926;-74
2022/11/25 10:03:43;;;;;;;9.63;2.47;;;9.60;99.90;;;;;;5028153;28;20112;-74
2022/11/25 10:06:18;;;;;;;6.00;1.80;;;9.60;99.90;;;;;;5025537;28;20038;-74
2022/11/25 10:08:50;;;;;;;9.50;1.83;;;9.60;99.90;;;;;;5025857;28;20613;-74
2022/11/25 10:11:45;;;;;;;11.65;2.30;;;9.70;99.90;;;;;;5018627;28;20028;-74
2022/11/25 10:14:25;;;;;;;7.75;1.90;;;9.70;99.90;;;;;;5015706;28;20030;-74
2022/11/25 10:17:09;;;;;;;8.90;1.60;;;9.80;99.90;;;;;;5023678;28;20388;-74
2022/11/25 10:20:00;;;;;;;9.32;2.13;;;9.80;99.90;;;;;;5017078;28;20083;-74
2022/11/25 10:22:29;;;;;;;7.90;1.52;;;9.90;99.90;;;;;;5025656;28;20125;-74
2022/11/25 10:25:05;;;;;;;12.70;1.98;;;9.90;99.90;;;;;;5027334;28;20030;-74
2022/11/25 10:27:58;;;;;;;11.73;1.90;;;10.00;99.90;;;;;;5030121;28;20021;-74
2022/11/25 10:30:33;;;;;;;8.43;1.83;;;10.00;99.90;;;;;;5023472;28;20033;-74
2022/11/25 10:33:22;;;;;;;8.40;1.65;;;10.10;99.90;;;;;;5027930;28;20175;-74
2022/11/25 10:35:57;;;;;;;9.73;1.00;;;10.10;99.90;;;;;;5029618;28;20033;-74
2022/11/25 10:38:30;;;;;;;15.57;2.08;;;10.10;99.90;;;;;;5022615;28;20037;-74
2022/11/25 10:40:56;;;;;;;7.63;2.08;;;10.20;99.90;;;;;;5025083;28;20072;-74
2022/11/25 10:43:22;;;;;;;8.25;1.80;;;10.20;99.90;;;;;;5020939;28;20029;-74
2022/11/25 10:46:06;;;;;;;8.43;1.50;;;10.20;99.90;;;;;;5005563;28;20026;-74
2022/11/25 10:49:00;;;;;;;9.73;1.40;;;10.30;99.90;;;;;;5021448;28;20026;-74
2022/11/25 10:51:36;;;;;;;7.53;1.55;;;10.30;99.90;;;;;;5027588;28;20033;-74
2022/11/25 10:54:26;;;;;;;11.30;1.50;;;10.40;99.90;;;;;;5030074;28;20041;-74
2022/11/25 10:56:58;;;;;;;9.40;1.33;;;10.40;99.90;;;;;;5030739;28;20137;-74
2022/11/25 10:59:38;;;;;;;5.13;1.17;;;10.50;99.90;;;;;;5021478;28;20112;-74
2022/11/25 11:02:24;;;;;;;9.82;1.55;;;10.50;99.90;;;;;;5033107;28;20131;-74
2022/11/25 11:04:54;;;;;;;9.93;1.45;;;10.60;99.90;;;;;;5029557;28;20035;-74
2022/11/25 11:07:21;;;;;;;8.90;1.08;;;10.60;99.90;;;;;;5024277;28;20491;-74
2022/11/25 11:09:48;;;;;;;5.03;0.88;;;10.70;99.90;;;;;;5032675;28;20419;-74
2022/11/25 11:12:27;;;;;;;9.75;0.98;;;10.70;99.90;;;;;;5027712;28;20025;-74
2022/11/25 11:15:12;;;;;;;7.28;1.40;;;10.80;99.90;;;;;;5032477;28;20037;-74
2022/11/25 11:17:38;;;;;;;9.18;1.10;;;10.90;99.90;;;;;;5036750;28;20029;-74
2022/11/25 11:20:07;;;;;;;5.00;0.93;;;10.90;99.90;;;;;;5032776;28;20029;-74
2022/11/25 11:22:34;;;;;;;7.72;1.20;;;11.00;99.90;;;;;;5049065;28;20029;-74
2022/11/25 11:25:25;;;;;;;8.45;0.88;;;11.00;99.90;;;;;;5054106;28;20040;-74
2022/11/25 11:27:51;;;;;;;11.15;1.10;;;11.10;99.90;;;;;;5039327;28;20025;-74
2022/11/25 11:30:20;;;;;;;11.43;1.95;;;11.10;99.90;;;;;;5031308;28;20041;-74
2022/11/25 11:33:26;;;;;;;7.22;0.80;;;11.10;99.90;;;;;;5030138;28;20059;-74
2022/11/25 11:35:57;;;;;;;7.53;0.90;;;11.20;99.90;;;;;;5025446;28;20091;-74
2022/11/25 11:38:32;;;;;;;3.90;1.15;;;11.20;99.90;;;;;;5028486;28;20025;-75
2022/11/25 11:41:35;;;;;;;11.48;1.45;;;11.20;99.90;;;;;;5029387;28;20033;-74
2022/11/25 11:44:51;;;;;;;8.18;0.88;;;11.30;99.90;;;;;;5032843;28;20059;-74
2022/11/25 11:47:47;;;;;;;13.68;1.33;;;11.30;99.90;;;;;;4999065;28;20048;-74
2022/11/25 11:50:36;;;;;;;7.70;0.90;;;11.40;99.90;;;;;;5029143;28;20029;-74
2022/11/25 11:53:20;;;;;;;6.55;0.90;;;11.40;99.90;;;;;;5031289;28;20033;-74
2022/11/25 11:56:14;;;;;;;9.48;0.90;;;11.50;99.90;;;;;;5033239;28;20075;-74
2022/11/25 11:58:52;;;;;;;8.98;1.00;;;11.50;99.90;;;;;;5033172;28;20450;-74
2022/11/25 12:02:01;;;;;;;7.18;0.82;;;11.50;99.90;;;;;;5028921;28;20022;-75
2022/11/25 12:04:35;;;;;;;11.40;1.25;;;11.60;99.90;;;;;;5026537;28;20040;-74
2022/11/25 12:07:16;;;;;;;6.10;0.88;;;11.60;99.90;;;;;;5038113;28;20031;-74
2022/11/25 12:10:09;;;;;;;6.28;0.77;;;11.70;99.90;;;;;;5022710;28;20056;-75
2022/11/25 12:13:12;;;;;;;9.68;0.77;;;11.70;99.90;;;;;;5022694;28;20053;-75
2022/11/25 12:15:45;;;;;;;7.70;1.15;;;11.70;99.90;;;;;;5009463;28;20076;-75
2022/11/25 12:18:18;;;;;;;;;;;11.80;99.90;;;;;;5021638;28;20033;-73
2022/11/25 12:20:53;;;;;;;8.77;1.08;;;11.80;99.90;;;;;;5022726;28;19909;-75
2022/11/25 12:23:38;;;;;;;8.25;1.08;;;11.80;99.90;;;;;;5007137;28;20042;-74
2022/11/25 12:26:11;;;;;;;9.38;1.02;;;11.80;99.90;;;;;;5027021;28;20037;-74
2022/11/25 12:28:48;;;;;;;9.45;2.00;;;11.80;99.90;;;;;;5031262;28;20022;-75
2022/11/25 12:31:26;;;;;;;8.63;0.85;;;11.90;99.90;;;;;;5029698;28;20049;-73
2022/11/25 12:34:02;;;;;;;5.78;0.70;;;11.90;99.90;;;;;;5027757;28;20502;-72
2022/11/25 12:36:37;;;;;;;8.52;0.90;;;11.90;99.90;;;;;;5027311;28;20052;-74
2022/11/25 12:39:31;;;;;;;13.80;0.98;;;12.00;99.90;;;;;;5023591;28;20021;-73
2022/11/25 12:42:01;;;;;;;7.88;0.90;;;12.00;99.90;;;;;;5028880;28;20571;-73
2022/11/25 12:45:09;;;;;;;8.63;0.90;;;11.90;99.90;;;;;;5027889;28;20411;-74
2022/11/25 12:47:38;;;;;;;7.80;1.50;;;11.90;99.90;;;;;;5030202;28;20033;-74
2022/11/25 12:50:04;;;;;;;8.93;1.00;;;11.90;99.90;;;;;;5029544;28;20029;-73
2022/11/25 12:53:02;;;;;;;11.18;0.80;;;11.90;99.90;;;;;;5028825;28;20034;-74
2022/11/25 12:55:29;;;;;;;3.50;0.57;;;11.90;99.90;;;;;;5023699;28;20046;-73
2022/11/25 12:58:16;;;;;;;7.28;0.90;;;11.80;99.90;;;;;;5031142;28;20022;-73
2022/11/25 13:01:06;;;;;;;10.10;1.52;;;11.70;99.90;;;;;;5026449;28;20048;-73
2022/11/25 13:03:43;;;;;;;8.35;0.90;;;11.70;99.90;;;;;;5021472;28;20021;-73
2022/11/25 13:06:37;;;;;;;8.63;1.10;;;11.70;99.90;;;;;;5025080;28;20067;-73
2022/11/25 13:09:45;;;;;;;10.75;0.88;;;11.70;99.90;;;;;;5017780;28;20041;-73
2022/11/25 13:12:58;;;;;;;13.38;1.38;;;11.60;99.90;;;;;;5027249;28;20092;-72
2022/11/25 13:15:27;;;;;;;7.15;0.80;;;11.60;99.90;;;;;;5016146;28;20052;-74
2022/11/25 13:18:09;;;;;;;6.72;0.80;;;11.60;99.90;;;;;;5027830;28;20112;-73